Esmond, South Dakota
Current Conditions -  °F | °C
As of 4:55 PM on Wednesday 17 Dec 2014 (Local Time) from KHON Reporting Station
Clear Clear  
Wind Chill: 12°   Ceiling: Unl
Heat Index: 12°   Visibility: 9mi
Dew Point:   Wind: 3mph
Humidity: 88%   Direction: 90°E
Pressure: 30.26"   Gusts: NA
Location:  44.3062°N, 97.8068°W
Report Text: KHON 172255Z AUTO 09003KT 9SM CLR M11/M13 A3026 RMK AO2 SLP278 T11111128
Loading
Personal Weather Stations






























Interactive Weather Map New forecast layout! Learn more

10-Day Weather Forecast

Advertisements
Track Severe Weather on mobile